Jose Boiteux, Brazil
Current Conditions -  °F | °C
As of 12:00 AM on Friday 31 Oct 2014 (Local Time) from SBNF Reporting Station
Broken Clouds Broken Clouds  
Wind Chill: 75°   Ceiling: 1600
Heat Index: 75°   Visibility: 6mi
Dew Point: 70°   Wind: 7mph
Humidity: 83%   Direction: 50°NE
Pressure: 29.83"   Gusts: NA
Location:  26.96°S, 49.63°W
Report Text: SBNF 310200Z 05006KT 9999 BKN016 24/21 Q1010
Loading
Personal Weather Stations






























Interactive Weather Map
Tropical Storm Tracking
New forecast layout! Learn more

10-Day Weather Forecast

Advertisements
Track Severe Weather on mobile